createdAt,value
2022-11-06T00:01:34.886Z,10.20
2022-11-06T00:04:01.931Z,10.20
2022-11-06T00:06:47.992Z,10.20
2022-11-06T00:09:19.246Z,10.20
2022-11-06T00:11:46.971Z,10.20
2022-11-06T00:14:13.850Z,10.30
2022-11-06T00:16:41.390Z,10.30
2022-11-06T00:19:08.482Z,10.30
2022-11-06T00:21:35.817Z,10.30
2022-11-06T00:24:04.734Z,10.20
2022-11-06T00:26:32.056Z,10.30
2022-11-06T00:28:59.311Z,10.20
2022-11-06T00:31:28.979Z,10.20
2022-11-06T00:33:57.448Z,10.10
2022-11-06T00:36:25.477Z,10.00
2022-11-06T00:38:53.474Z,9.90
2022-11-06T00:41:20.936Z,9.90
2022-11-06T00:43:49.335Z,9.90
2022-11-06T00:46:16.324Z,9.90
2022-11-06T00:48:43.258Z,9.90
2022-11-06T00:51:11.417Z,9.90
2022-11-06T00:53:38.527Z,9.90
2022-11-06T00:56:26.799Z,9.90
2022-11-06T00:58:54.068Z,9.90
2022-11-06T01:01:26.681Z,9.90
2022-11-06T01:03:58.837Z,9.90
2022-11-06T01:06:27.930Z,9.90
2022-11-06T01:08:55.202Z,9.90
2022-11-06T01:11:24.697Z,9.90
2022-11-06T01:13:53.717Z,9.90
2022-11-06T01:16:21.027Z,9.80
2022-11-06T01:18:48.077Z,9.90
2022-11-06T01:21:21.331Z,9.90
2022-11-06T01:23:49.119Z,9.90
2022-11-06T01:26:24.631Z,9.80
2022-11-06T01:29:03.487Z,9.80
2022-11-06T01:31:31.885Z,9.80
2022-11-06T01:33:59.654Z,9.70
2022-11-06T01:36:30.287Z,9.80
2022-11-06T01:38:59.616Z,9.70
2022-11-06T01:41:29.113Z,9.70
2022-11-06T01:44:00.382Z,9.80
2022-11-06T01:46:29.408Z,9.80
2022-11-06T01:49:11.232Z,9.80
2022-11-06T01:51:49.981Z,9.80
2022-11-06T01:54:16.990Z,9.80
2022-11-06T01:56:44.940Z,9.80
2022-11-06T01:59:14.704Z,9.80
2022-11-06T02:04:27.634Z,9.80
2022-11-06T02:06:54.574Z,9.80
2022-11-06T02:09:21.525Z,9.80
2022-11-06T02:11:58.602Z,9.80
2022-11-06T02:14:48.847Z,9.80
2022-11-06T02:17:28.337Z,9.90
2022-11-06T02:20:18.810Z,9.90
2022-11-06T02:23:39.734Z,9.90
2022-11-06T02:26:44.502Z,9.90
2022-11-06T02:29:18.854Z,9.90
2022-11-06T02:31:45.796Z,9.90
2022-11-06T02:34:14.048Z,9.90
2022-11-06T02:36:46.034Z,9.90
2022-11-06T02:39:14.477Z,10.00
2022-11-06T02:41:44.285Z,9.90
2022-11-06T02:44:14.164Z,9.80
2022-11-06T02:46:43.932Z,9.80
2022-11-06T02:49:38.009Z,9.80
2022-11-06T02:52:29.415Z,9.80
2022-11-06T02:55:02.432Z,9.70
2022-11-06T02:57:29.364Z,9.70
2022-11-06T03:00:06.306Z,9.70
2022-11-06T03:02:58.181Z,9.60
2022-11-06T03:05:30.031Z,9.60
2022-11-06T03:08:17.649Z,9.60
2022-11-06T03:11:09.708Z,9.60
2022-11-06T03:13:51.754Z,9.60
2022-11-06T03:16:46.528Z,9.60
2022-11-06T03:19:37.980Z,9.60
2022-11-06T03:22:09.936Z,9.60
2022-11-06T03:24:47.408Z,9.50
2022-11-06T03:27:28.830Z,9.50
2022-11-06T03:30:07.062Z,9.50
2022-11-06T03:32:49.023Z,9.50
2022-11-06T03:35:39.049Z,9.50
2022-11-06T03:38:09.855Z,9.50
2022-11-06T03:40:39.460Z,9.50
2022-11-06T03:43:06.808Z,9.50
2022-11-06T03:45:33.811Z,9.50
2022-11-06T03:48:04.971Z,9.50
2022-11-06T03:50:34.269Z,9.50
2022-11-06T03:53:06.192Z,9.50
2022-11-06T03:55:36.827Z,9.40
2022-11-06T03:58:08.830Z,9.40
2022-11-06T04:00:36.287Z,9.40
2022-11-06T04:03:06.375Z,9.40
2022-11-06T04:05:37.584Z,9.40
2022-11-06T04:08:22.972Z,9.40
2022-11-06T04:11:11.952Z,9.50
2022-11-06T04:13:57.451Z,9.50
2022-11-06T04:16:36.339Z,9.50
2022-11-06T04:19:03.531Z,9.50
2022-11-06T04:22:09.494Z,9.50
2022-11-06T04:25:30.490Z,9.50
2022-11-06T04:28:03.763Z,9.50
2022-11-06T04:30:32.662Z,9.60
2022-11-06T04:33:19.167Z,9.60
2022-11-06T04:36:04.693Z,9.60
2022-11-06T04:38:31.465Z,9.60
2022-11-06T04:41:13.041Z,9.60
2022-11-06T04:43:57.667Z,9.60
2022-11-06T04:46:28.055Z,9.60
2022-11-06T04:48:55.268Z,9.60
2022-11-06T04:51:25.614Z,9.60
2022-11-06T04:53:52.800Z,9.60
2022-11-06T04:56:33.978Z,9.60
2022-11-06T04:59:02.883Z,9.60
2022-11-06T05:01:29.867Z,9.60
2022-11-06T05:03:56.858Z,9.60
2022-11-06T05:06:29.740Z,9.60
2022-11-06T05:08:58.337Z,9.60
2022-11-06T05:11:25.291Z,9.60
2022-11-06T05:13:52.175Z,9.60
2022-11-06T05:16:19.116Z,9.60
2022-11-06T05:18:46.119Z,9.60
2022-11-06T05:21:31.723Z,9.60
2022-11-06T05:23:58.655Z,9.70
2022-11-06T05:26:25.593Z,9.70
2022-11-06T05:28:52.467Z,9.70
2022-11-06T05:31:22.249Z,9.70
2022-11-06T05:33:49.185Z,9.70
2022-11-06T05:36:16.132Z,9.70
2022-11-06T05:38:43.064Z,9.70
2022-11-06T05:41:09.956Z,9.70
2022-11-06T05:43:37.233Z,9.80
2022-11-06T05:46:04.116Z,9.80
2022-11-06T05:48:31.001Z,9.80
2022-11-06T05:51:02.427Z,9.80
2022-11-06T05:53:30.957Z,9.80
2022-11-06T05:55:57.862Z,9.80
2022-11-06T05:58:26.666Z,9.90
2022-11-06T06:00:55.356Z,9.90
2022-11-06T06:03:22.390Z,9.90
2022-11-06T06:05:49.590Z,9.90
2022-11-06T06:08:16.535Z,9.90
2022-11-06T06:10:47.391Z,9.90
2022-11-06T06:13:14.700Z,9.90
2022-11-06T06:15:42.339Z,9.90
2022-11-06T06:18:10.113Z,9.90
2022-11-06T06:20:37.230Z,9.90
2022-11-06T06:23:06.378Z,9.90
2022-11-06T06:25:36.192Z,9.90
2022-11-06T06:28:03.088Z,9.90
2022-11-06T06:30:30.206Z,9.90
2022-11-06T06:32:57.214Z,9.90
2022-11-06T06:35:24.290Z,10.00
2022-11-06T06:37:55.343Z,10.00
2022-11-06T06:40:23.229Z,10.00
2022-11-06T06:42:50.285Z,9.90
2022-11-06T06:45:17.328Z,9.90
2022-11-06T06:47:44.408Z,9.90
2022-11-06T06:50:11.958Z,9.90
2022-11-06T06:52:38.963Z,9.90
2022-11-06T06:55:06.244Z,9.90
2022-11-06T06:57:33.142Z,10.00
2022-11-06T07:00:00.129Z,9.90
2022-11-06T07:02:27.070Z,10.00
2022-11-06T07:04:54.199Z,10.00
2022-11-06T07:07:21.125Z,10.00
2022-11-06T07:09:48.334Z,10.00
2022-11-06T07:12:15.466Z,10.00
2022-11-06T07:14:42.807Z,10.00
2022-11-06T07:17:09.699Z,10.00
2022-11-06T07:19:36.608Z,10.00
2022-11-06T07:22:03.621Z,10.00
2022-11-06T07:24:30.676Z,10.00
2022-11-06T07:26:57.571Z,10.00
2022-11-06T07:29:25.272Z,10.00
2022-11-06T07:31:52.195Z,10.00
2022-11-06T07:34:19.106Z,10.00
2022-11-06T07:36:46.035Z,10.00
2022-11-06T07:39:13.046Z,10.00
2022-11-06T07:41:39.937Z,10.00
2022-11-06T07:44:07.380Z,10.10
2022-11-06T07:46:34.432Z,10.10
2022-11-06T07:49:01.757Z,10.10
2022-11-06T07:51:28.781Z,10.10
2022-11-06T07:53:55.672Z,10.10
2022-11-06T07:56:22.554Z,10.20
2022-11-06T07:58:50.006Z,10.20
2022-11-06T08:01:18.774Z,10.20
2022-11-06T08:03:46.027Z,10.20
2022-11-06T08:06:13.117Z,10.30
2022-11-06T08:08:40.029Z,10.30
2022-11-06T08:11:09.173Z,10.30
2022-11-06T08:13:36.245Z,10.30
2022-11-06T08:16:06.922Z,10.30
2022-11-06T08:18:33.979Z,10.30
2022-11-06T08:21:00.954Z,10.30
2022-11-06T08:23:28.099Z,10.30
2022-11-06T08:25:56.448Z,10.30
2022-11-06T08:28:24.655Z,10.30
2022-11-06T08:30:51.758Z,10.40
2022-11-06T08:33:19.644Z,10.40
2022-11-06T08:35:46.870Z,10.40
2022-11-06T08:38:14.938Z,10.40
2022-11-06T08:40:42.106Z,10.50
2022-11-06T08:43:10.376Z,10.60
2022-11-06T08:45:41.403Z,10.60
2022-11-06T08:48:08.371Z,10.70
2022-11-06T08:50:37.341Z,10.80
2022-11-06T08:53:04.725Z,10.70
2022-11-06T08:55:32.056Z,10.80
2022-11-06T08:57:58.967Z,10.90
2022-11-06T09:00:25.874Z,10.90
2022-11-06T09:02:58.593Z,10.90
2022-11-06T09:05:25.740Z,10.90
2022-11-06T09:07:52.645Z,11.00
2022-11-06T09:10:20.119Z,11.00
2022-11-06T09:12:47.060Z,11.00
2022-11-06T09:15:14.337Z,11.00
2022-11-06T09:17:45.275Z,11.00
2022-11-06T09:20:12.992Z,11.10
2022-11-06T09:22:39.952Z,11.20
2022-11-06T09:25:07.730Z,11.50
2022-11-06T09:27:42.646Z,11.50
2022-11-06T09:30:11.287Z,11.60
2022-11-06T09:32:38.476Z,11.60
2022-11-06T09:35:05.995Z,11.60
2022-11-06T09:37:32.877Z,11.60
2022-11-06T09:40:05.745Z,11.70
2022-11-06T09:43:03.878Z,11.70
2022-11-06T09:45:32.051Z,11.70
2022-11-06T09:48:10.847Z,11.70
2022-11-06T09:50:41.440Z,11.60
2022-11-06T09:53:16.843Z,11.60
2022-11-06T09:55:47.374Z,11.60
2022-11-06T09:58:16.352Z,11.60
2022-11-06T10:00:44.133Z,11.60
2022-11-06T10:03:11.233Z,11.70
2022-11-06T10:05:38.294Z,11.80
2022-11-06T10:08:14.667Z,11.80
2022-11-06T10:10:48.311Z,11.80
2022-11-06T10:13:20.081Z,11.80
2022-11-06T10:16:11.859Z,11.90
2022-11-06T10:18:41.826Z,12.00
2022-11-06T10:21:18.678Z,12.00
2022-11-06T10:23:50.080Z,12.10
2022-11-06T10:26:22.684Z,12.10
2022-11-06T10:29:16.678Z,12.20
2022-11-06T10:32:04.175Z,12.20
2022-11-06T10:34:36.471Z,12.20
2022-11-06T10:37:12.989Z,12.10
2022-11-06T10:39:40.330Z,12.10
2022-11-06T10:42:19.766Z,12.10
2022-11-06T10:44:58.788Z,12.00
2022-11-06T10:47:34.082Z,12.00
2022-11-06T10:50:05.109Z,12.00
2022-11-06T10:53:01.721Z,12.00
2022-11-06T10:55:34.923Z,12.00
2022-11-06T10:58:16.002Z,12.00
2022-11-06T11:00:43.882Z,12.10
2022-11-06T11:03:29.578Z,12.00
2022-11-06T11:05:56.618Z,12.00
2022-11-06T11:08:43.256Z,12.00
2022-11-06T11:11:28.994Z,12.10
2022-11-06T11:14:01.860Z,12.10
2022-11-06T11:16:33.953Z,12.00
2022-11-06T11:19:25.913Z,12.00
2022-11-06T11:22:00.313Z,11.90
2022-11-06T11:24:27.348Z,11.90
2022-11-06T11:27:02.913Z,11.90
2022-11-06T11:29:45.309Z,11.90
2022-11-06T11:32:14.874Z,11.80
2022-11-06T11:34:59.938Z,11.80
2022-11-06T11:37:31.511Z,11.70
2022-11-06T11:40:18.779Z,11.80
2022-11-06T11:42:45.732Z,11.70
2022-11-06T11:45:15.366Z,11.70
2022-11-06T11:47:51.540Z,11.70
2022-11-06T11:50:26.673Z,11.70
2022-11-06T11:53:03.219Z,11.70
2022-11-06T11:55:32.647Z,11.70
2022-11-06T11:58:00.013Z,11.80
2022-11-06T12:00:27.042Z,11.80
2022-11-06T12:03:03.383Z,11.90
2022-11-06T12:05:36.963Z,11.90
2022-11-06T12:08:04.828Z,12.00
2022-11-06T12:10:38.469Z,12.00
2022-11-06T12:13:16.968Z,12.00
2022-11-06T12:16:09.732Z,12.10
2022-11-06T12:18:47.868Z,12.10
2022-11-06T12:21:32.703Z,12.10
2022-11-06T12:24:13.021Z,12.10
2022-11-06T12:26:50.558Z,12.10
2022-11-06T12:29:20.072Z,12.10
2022-11-06T12:32:11.465Z,12.10
2022-11-06T12:35:07.389Z,12.00
2022-11-06T12:37:55.122Z,12.10
2022-11-06T12:40:28.923Z,12.10
2022-11-06T12:43:03.824Z,12.10
2022-11-06T12:46:02.859Z,12.10
2022-11-06T12:49:02.355Z,12.10
2022-11-06T12:51:41.303Z,12.00
2022-11-06T12:54:14.016Z,12.00
2022-11-06T12:57:05.779Z,12.00
2022-11-06T12:59:44.832Z,12.00
2022-11-06T13:02:37.581Z,12.00
2022-11-06T13:05:20.298Z,11.90
2022-11-06T13:07:47.056Z,12.00
2022-11-06T13:10:42.979Z,12.00
2022-11-06T13:13:31.267Z,11.90
2022-11-06T13:16:04.829Z,11.90
2022-11-06T13:18:35.909Z,12.00
2022-11-06T13:21:20.132Z,12.00
2022-11-06T13:23:56.796Z,12.00
2022-11-06T13:26:36.166Z,11.90
2022-11-06T13:29:04.501Z,11.90
2022-11-06T13:31:36.383Z,11.90
2022-11-06T13:34:03.548Z,11.90
2022-11-06T13:36:30.432Z,11.90
2022-11-06T13:39:03.446Z,11.90
2022-11-06T13:41:31.531Z,11.90
2022-11-06T13:44:15.896Z,11.90
2022-11-06T13:46:49.812Z,11.90
2022-11-06T13:49:41.995Z,11.90
2022-11-06T13:52:21.009Z,11.90
2022-11-06T13:55:06.159Z,11.90
2022-11-06T13:57:56.012Z,11.80
2022-11-06T14:00:23.927Z,11.80
2022-11-06T14:03:17.234Z,11.70
2022-11-06T14:05:57.579Z,11.70
2022-11-06T14:08:27.782Z,11.60
2022-11-06T14:11:22.529Z,11.50
2022-11-06T14:14:04.626Z,11.40
2022-11-06T14:16:43.876Z,11.30
2022-11-06T14:19:27.184Z,11.30
2022-11-06T14:22:15.625Z,11.20
2022-11-06T14:24:43.258Z,11.10
2022-11-06T14:27:13.541Z,11.10
2022-11-06T14:29:40.318Z,11.00
2022-11-06T14:32:32.587Z,11.00
2022-11-06T14:35:28.363Z,10.90
2022-11-06T14:38:31.469Z,10.80
2022-11-06T14:40:58.883Z,10.80
2022-11-06T14:43:30.119Z,10.70
2022-11-06T14:46:07.835Z,10.60
2022-11-06T14:48:39.093Z,10.50
2022-11-06T14:51:07.680Z,10.40
2022-11-06T14:53:37.492Z,10.50
2022-11-06T14:56:08.623Z,10.40
2022-11-06T14:58:38.007Z,10.40
2022-11-06T15:01:10.904Z,10.30
2022-11-06T15:03:44.809Z,10.30
2022-11-06T15:06:38.475Z,10.20
2022-11-06T15:09:15.417Z,10.30
2022-11-06T15:11:48.099Z,10.20
2022-11-06T15:14:15.008Z,10.10
2022-11-06T15:16:52.414Z,10.20
2022-11-06T15:19:20.588Z,10.10
2022-11-06T15:21:51.129Z,10.10
2022-11-06T15:24:27.208Z,10.00
2022-11-06T15:26:57.206Z,9.90
2022-11-06T15:29:28.795Z,9.90
2022-11-06T15:32:06.409Z,9.90
2022-11-06T15:34:37.652Z,9.80
2022-11-06T15:37:11.918Z,9.80
2022-11-06T15:40:00.514Z,9.70
2022-11-06T15:42:29.564Z,9.60
2022-11-06T15:45:26.450Z,9.60
2022-11-06T15:47:58.259Z,9.60
2022-11-06T15:50:26.162Z,9.60
2022-11-06T15:52:53.193Z,9.60
2022-11-06T15:55:26.411Z,9.50
2022-11-06T15:57:53.757Z,9.40
2022-11-06T16:00:23.830Z,9.40
2022-11-06T16:02:56.585Z,9.30
2022-11-06T16:05:23.644Z,9.30
2022-11-06T16:07:50.716Z,9.30
2022-11-06T16:10:21.194Z,9.20
2022-11-06T16:12:48.449Z,9.20
2022-11-06T16:15:47.066Z,9.10
2022-11-06T16:18:19.832Z,9.10
2022-11-06T16:20:51.376Z,9.10
2022-11-06T16:23:24.334Z,9.00
2022-11-06T16:26:11.378Z,9.00
2022-11-06T16:28:44.941Z,9.00
2022-11-06T16:31:23.957Z,8.90
2022-11-06T16:33:58.719Z,8.90
2022-11-06T16:36:26.743Z,8.80
2022-11-06T16:38:54.268Z,8.80
2022-11-06T16:41:40.178Z,8.80
2022-11-06T16:44:29.669Z,8.70
2022-11-06T16:47:10.046Z,8.70
2022-11-06T16:49:42.053Z,8.60
2022-11-06T16:52:25.554Z,8.50
2022-11-06T16:55:04.175Z,8.40
2022-11-06T16:57:35.737Z,8.40
2022-11-06T17:00:05.462Z,8.40
2022-11-06T17:02:34.607Z,8.40
2022-11-06T17:05:13.768Z,8.30
2022-11-06T17:07:40.999Z,8.30
2022-11-06T17:10:37.100Z,8.30
2022-11-06T17:13:17.241Z,8.20
2022-11-06T17:15:48.566Z,8.30
2022-11-06T17:18:18.075Z,8.30
2022-11-06T17:20:52.193Z,8.30
2022-11-06T17:23:20.139Z,8.20
2022-11-06T17:25:47.215Z,8.20
2022-11-06T17:28:14.675Z,8.20
2022-11-06T17:30:41.587Z,8.20
2022-11-06T17:33:08.478Z,8.20
2022-11-06T17:35:35.458Z,8.20
2022-11-06T17:38:07.182Z,8.20
2022-11-06T17:40:34.491Z,8.10
2022-11-06T17:43:01.382Z,8.20
2022-11-06T17:45:28.279Z,8.10
2022-11-06T17:47:55.228Z,8.20
2022-11-06T17:50:25.291Z,8.20
2022-11-06T17:52:52.342Z,8.20
2022-11-06T17:55:19.403Z,8.20
2022-11-06T17:57:46.453Z,8.20
2022-11-06T18:00:16.201Z,8.20
2022-11-06T18:03:00.436Z,8.20
2022-11-06T18:05:28.873Z,8.20
2022-11-06T18:07:55.826Z,8.20
2022-11-06T18:10:26.157Z,8.30
2022-11-06T18:12:57.127Z,8.20
2022-11-06T18:15:24.061Z,8.20
2022-11-06T18:17:50.938Z,8.20
2022-11-06T18:20:17.865Z,8.10
2022-11-06T18:22:45.260Z,8.10
2022-11-06T18:25:12.136Z,8.10
2022-11-06T18:27:42.778Z,8.20
2022-11-06T18:30:13.041Z,8.20
2022-11-06T18:32:40.059Z,8.10
2022-11-06T18:35:07.280Z,8.00
2022-11-06T18:37:34.237Z,8.10
2022-11-06T18:40:01.143Z,8.00
2022-11-06T18:42:28.234Z,8.10
2022-11-06T18:44:58.270Z,8.10
2022-11-06T18:47:25.314Z,8.10
2022-11-06T18:49:52.376Z,8.10
2022-11-06T18:52:37.982Z,8.20
2022-11-06T18:55:07.109Z,8.10
2022-11-06T18:57:34.000Z,8.20
2022-11-06T19:00:03.968Z,8.20
2022-11-06T19:02:31.515Z,8.20
2022-11-06T19:04:59.795Z,8.20
2022-11-06T19:07:27.255Z,8.30
2022-11-06T19:09:56.855Z,8.30
2022-11-06T19:12:23.852Z,8.30
2022-11-06T19:14:50.796Z,8.30
2022-11-06T19:17:17.703Z,8.40
2022-11-06T19:19:46.997Z,8.40
2022-11-06T19:22:14.060Z,8.40
2022-11-06T19:24:41.746Z,8.40
2022-11-06T19:27:08.911Z,8.50
2022-11-06T19:29:35.996Z,8.50
2022-11-06T19:32:03.263Z,8.60
2022-11-06T19:34:33.047Z,8.50
2022-11-06T19:37:02.225Z,8.50
2022-11-06T19:39:29.138Z,8.60
2022-11-06T19:41:57.872Z,8.60
2022-11-06T19:44:27.700Z,8.60
2022-11-06T19:46:54.955Z,8.60
2022-11-06T19:49:22.271Z,8.60
2022-11-06T19:51:49.174Z,8.60
2022-11-06T19:54:16.280Z,8.60
2022-11-06T19:57:26.987Z,8.70
2022-11-06T19:59:30.943Z,8.70
2022-11-06T20:01:58.019Z,8.70
2022-11-06T20:04:25.003Z,8.70
2022-11-06T20:06:52.585Z,8.70
2022-11-06T20:09:19.678Z,8.80
2022-11-06T20:11:46.589Z,8.80
2022-11-06T20:14:18.677Z,8.80
2022-11-06T20:16:45.596Z,8.80
2022-11-06T20:19:12.807Z,8.80
2022-11-06T20:21:40.075Z,8.90
2022-11-06T20:24:07.218Z,8.90
2022-11-06T20:26:34.100Z,8.90
2022-11-06T20:29:01.168Z,8.90
2022-11-06T20:31:28.159Z,8.90
2022-11-06T20:33:57.689Z,9.00
2022-11-06T20:36:29.849Z,9.00
2022-11-06T20:38:58.829Z,9.00
2022-11-06T20:41:26.437Z,9.10
2022-11-06T20:43:53.825Z,9.10
2022-11-06T20:46:21.155Z,9.10
2022-11-06T20:48:48.514Z,9.10
2022-11-06T20:51:17.789Z,9.10
2022-11-06T20:53:44.959Z,9.10
2022-11-06T20:56:14.092Z,9.20
2022-11-06T20:58:41.512Z,9.10
2022-11-06T21:01:20.025Z,9.20
2022-11-06T21:03:48.174Z,9.20
2022-11-06T21:06:15.367Z,9.20
2022-11-06T21:08:42.635Z,9.30
2022-11-06T21:11:12.287Z,9.30
2022-11-06T21:13:40.855Z,9.30
2022-11-06T21:16:21.714Z,9.30
2022-11-06T21:18:48.784Z,9.30
2022-11-06T21:21:17.914Z,9.30
2022-11-06T21:23:44.863Z,9.30
2022-11-06T21:26:14.286Z,9.30
2022-11-06T21:28:42.226Z,9.30
2022-11-06T21:31:15.313Z,9.30
2022-11-06T21:33:43.121Z,9.30
2022-11-06T21:36:15.036Z,9.40
2022-11-06T21:38:41.941Z,9.40
2022-11-06T21:41:10.859Z,9.40
2022-11-06T21:43:37.854Z,9.40
2022-11-06T21:46:06.040Z,9.40
2022-11-06T21:48:45.983Z,9.40
2022-11-06T21:51:19.079Z,9.50
2022-11-06T21:54:05.082Z,9.50
2022-11-06T21:56:32.104Z,9.60
2022-11-06T21:58:59.986Z,9.60
2022-11-06T22:01:27.609Z,9.70
2022-11-06T22:03:54.873Z,9.70
2022-11-06T22:06:24.576Z,9.80
2022-11-06T22:08:52.728Z,9.90
2022-11-06T22:13:58.504Z,9.90
2022-11-06T22:16:27.847Z,10.00
2022-11-06T22:18:55.164Z,10.00
2022-11-06T22:21:23.940Z,10.00
2022-11-06T22:23:51.375Z,10.00
2022-11-06T22:26:23.001Z,10.10
2022-11-06T22:28:58.944Z,10.10
2022-11-06T22:31:26.365Z,10.20
2022-11-06T22:33:54.089Z,10.20
2022-11-06T22:36:21.533Z,10.20
2022-11-06T22:38:48.659Z,10.30
2022-11-06T22:41:17.496Z,10.30
2022-11-06T22:43:44.831Z,10.30
2022-11-06T22:46:14.135Z,10.30
2022-11-06T22:48:41.333Z,10.30
2022-11-06T22:51:10.655Z,10.30
2022-11-06T22:53:37.757Z,10.40
2022-11-06T22:56:05.129Z,10.30
2022-11-06T22:58:34.010Z,10.40
2022-11-06T23:01:01.111Z,10.40
2022-11-06T23:03:29.279Z,10.40
2022-11-06T23:05:58.248Z,10.40
2022-11-06T23:08:26.302Z,10.50
2022-11-06T23:10:54.785Z,10.50
2022-11-06T23:13:22.178Z,10.50
2022-11-06T23:15:49.739Z,10.50
2022-11-06T23:18:16.633Z,10.50
2022-11-06T23:20:43.972Z,10.60
2022-11-06T23:23:11.060Z,10.60
2022-11-06T23:25:38.041Z,10.60
2022-11-06T23:28:05.142Z,10.70
2022-11-06T23:30:32.143Z,10.70
2022-11-06T23:32:59.140Z,10.70
2022-11-06T23:35:32.192Z,10.60
2022-11-06T23:37:59.567Z,10.70
2022-11-06T23:40:26.681Z,10.70
2022-11-06T23:42:56.164Z,10.60
2022-11-06T23:45:41.615Z,10.60
2022-11-06T23:48:14.002Z,10.60
2022-11-06T23:50:41.673Z,10.60
2022-11-06T23:53:08.677Z,10.70
2022-11-06T23:55:35.678Z,10.60
2022-11-06T23:58:02.669Z,10.60
